sensor_id;sensor_type;location;lat;lon;timestamp;temperature;humidity
71254;HTU21D;59019;47.638;18.966;2023-03-01T00:01:09;4.42;77.45
71254;HTU21D;59019;47.638;18.966;2023-03-01T00:03:35;4.42;77.58
71254;HTU21D;59019;47.638;18.966;2023-03-01T00:06:01;4.41;77.56
71254;HTU21D;59019;47.638;18.966;2023-03-01T00:08:28;4.43;77.40
71254;HTU21D;59019;47.638;18.966;2023-03-01T00:11:12;4.45;77.11
71254;HTU21D;59019;47.638;18.966;2023-03-01T00:13:38;4.39;76.15
71254;HTU21D;59019;47.638;18.966;2023-03-01T00:16:06;4.36;76.18
71254;HTU21D;59019;47.638;18.966;2023-03-01T00:18:32;4.42;76.33
71254;HTU21D;59019;47.638;18.966;2023-03-01T00:20:58;4.39;76.44
71254;HTU21D;59019;47.638;18.966;2023-03-01T00:23:24;4.35;76.47
71254;HTU21D;59019;47.638;18.966;2023-03-01T00:25:50;4.38;76.54
71254;HTU21D;59019;47.638;18.966;2023-03-01T00:28:16;4.42;76.54
71254;HTU21D;59019;47.638;18.966;2023-03-01T00:30:42;4.39;76.75
71254;HTU21D;59019;47.638;18.966;2023-03-01T00:33:07;4.45;77.12
71254;HTU21D;59019;47.638;18.966;2023-03-01T00:35:34;4.46;76.53
71254;HTU21D;59019;47.638;18.966;2023-03-01T00:38:00;4.43;76.44
71254;HTU21D;59019;47.638;18.966;2023-03-01T00:40:27;4.47;76.60
71254;HTU21D;59019;47.638;18.966;2023-03-01T00:42:53;4.49;77.84
71254;HTU21D;59019;47.638;18.966;2023-03-01T00:45:19;4.51;80.36
71254;HTU21D;59019;47.638;18.966;2023-03-01T00:47:45;4.53;80.59
71254;HTU21D;59019;47.638;18.966;2023-03-01T00:50:11;4.52;81.92
71254;HTU21D;59019;47.638;18.966;2023-03-01T00:52:37;4.58;82.36
71254;HTU21D;59019;47.638;18.966;2023-03-01T00:55:04;4.54;79.75
71254;HTU21D;59019;47.638;18.966;2023-03-01T00:57:30;4.57;78.33
71254;HTU21D;59019;47.638;18.966;2023-03-01T00:59:55;4.61;77.77
71254;HTU21D;59019;47.638;18.966;2023-03-01T01:02:21;4.63;77.63
71254;HTU21D;59019;47.638;18.966;2023-03-01T01:04:47;4.45;77.47
71254;HTU21D;59019;47.638;18.966;2023-03-01T01:07:13;4.48;77.36
71254;HTU21D;59019;47.638;18.966;2023-03-01T01:09:39;4.50;76.98
71254;HTU21D;59019;47.638;18.966;2023-03-01T01:12:05;4.39;76.57
71254;HTU21D;59019;47.638;18.966;2023-03-01T01:14:30;4.45;76.96
71254;HTU21D;59019;47.638;18.966;2023-03-01T01:16:56;4.48;77.02
71254;HTU21D;59019;47.638;18.966;2023-03-01T01:19:23;4.52;76.78
71254;HTU21D;59019;47.638;18.966;2023-03-01T01:21:49;4.46;76.60
71254;HTU21D;59019;47.638;18.966;2023-03-01T01:24:15;4.43;76.73
71254;HTU21D;59019;47.638;18.966;2023-03-01T01:26:42;4.46;76.83
71254;HTU21D;59019;47.638;18.966;2023-03-01T01:29:09;4.47;77.01
71254;HTU21D;59019;47.638;18.966;2023-03-01T01:31:39;4.50;76.87
71254;HTU21D;59019;47.638;18.966;2023-03-01T01:34:07;4.45;77.29
71254;HTU21D;59019;47.638;18.966;2023-03-01T01:36:34;4.43;77.51
71254;HTU21D;59019;47.638;18.966;2023-03-01T01:38:59;4.41;78.17
71254;HTU21D;59019;47.638;18.966;2023-03-01T01:41:28;4.32;78.40
71254;HTU21D;59019;47.638;18.966;2023-03-01T01:51:40;4.14;80.06
71254;HTU21D;59019;47.638;18.966;2023-03-01T01:54:15;4.06;79.84
71254;HTU21D;59019;47.638;18.966;2023-03-01T01:56:45;4.04;80.45
71254;HTU21D;59019;47.638;18.966;2023-03-01T01:59:13;3.88;81.14
71254;HTU21D;59019;47.638;18.966;2023-03-01T02:01:39;3.94;80.97
71254;HTU21D;59019;47.638;18.966;2023-03-01T02:04:05;3.92;80.81
71254;HTU21D;59019;47.638;18.966;2023-03-01T02:06:41;3.97;80.81
71254;HTU21D;59019;47.638;18.966;2023-03-01T02:09:11;3.74;80.97
71254;HTU21D;59019;47.638;18.966;2023-03-01T02:11:38;3.76;81.41
71254;HTU21D;59019;47.638;18.966;2023-03-01T02:14:04;3.82;81.20
71254;HTU21D;59019;47.638;18.966;2023-03-01T02:16:30;3.84;81.04
71254;HTU21D;59019;47.638;18.966;2023-03-01T02:18:56;3.90;81.23
71254;HTU21D;59019;47.638;18.966;2023-03-01T02:24:13;3.98;80.91
71254;HTU21D;59019;47.638;18.966;2023-03-01T02:26:50;4.02;81.30
71254;HTU21D;59019;47.638;18.966;2023-03-01T02:29:16;4.02;81.14
71254;HTU21D;59019;47.638;18.966;2023-03-01T02:31:42;4.03;80.77
71254;HTU21D;59019;47.638;18.966;2023-03-01T02:34:16;4.04;80.73
71254;HTU21D;59019;47.638;18.966;2023-03-01T02:36:52;3.93;80.46
71254;HTU21D;59019;47.638;18.966;2023-03-01T02:39:25;3.89;80.98
71254;HTU21D;59019;47.638;18.966;2023-03-01T02:41:53;3.95;80.83
71254;HTU21D;59019;47.638;18.966;2023-03-01T02:44:20;3.83;81.45
71254;HTU21D;59019;47.638;18.966;2023-03-01T02:46:50;3.93;81.14
71254;HTU21D;59019;47.638;18.966;2023-03-01T02:49:28;4.02;80.70
71254;HTU21D;59019;47.638;18.966;2023-03-01T02:55:24;4.09;82.10
71254;HTU21D;59019;47.638;18.966;2023-03-01T02:57:50;4.16;84.05
71254;HTU21D;59019;47.638;18.966;2023-03-01T03:00:24;4.23;86.22
71254;HTU21D;59019;47.638;18.966;2023-03-01T03:02:52;4.28;86.82
71254;HTU21D;59019;47.638;18.966;2023-03-01T03:05:24;4.30;88.12
71254;HTU21D;59019;47.638;18.966;2023-03-01T03:07:51;4.38;84.76
71254;HTU21D;59019;47.638;18.966;2023-03-01T03:10:23;4.35;81.62
71254;HTU21D;59019;47.638;18.966;2023-03-01T03:12:51;4.34;81.39
71254;HTU21D;59019;47.638;18.966;2023-03-01T03:15:17;4.36;80.58
71254;HTU21D;59019;47.638;18.966;2023-03-01T03:17:43;4.29;80.35
71254;HTU21D;59019;47.638;18.966;2023-03-01T03:20:11;4.23;80.79
71254;HTU21D;59019;47.638;18.966;2023-03-01T03:22:42;4.19;81.09
71254;HTU21D;59019;47.638;18.966;2023-03-01T03:25:09;4.14;81.39
71254;HTU21D;59019;47.638;18.966;2023-03-01T03:27:40;4.09;81.43
71254;HTU21D;59019;47.638;18.966;2023-03-01T03:30:09;4.05;81.94
71254;HTU21D;59019;47.638;18.966;2023-03-01T03:32:41;4.05;82.30
71254;HTU21D;59019;47.638;18.966;2023-03-01T03:35:09;4.02;82.33
71254;HTU21D;59019;47.638;18.966;2023-03-01T03:37:39;4.00;82.39
71254;HTU21D;59019;47.638;18.966;2023-03-01T03:40:24;4.03;82.20
71254;HTU21D;59019;47.638;18.966;2023-03-01T03:42:49;3.99;81.94
71254;HTU21D;59019;47.638;18.966;2023-03-01T03:45:16;4.01;82.13
71254;HTU21D;59019;47.638;18.966;2023-03-01T03:47:43;4.03;82.04
71254;HTU21D;59019;47.638;18.966;2023-03-01T03:50:13;4.05;82.10
71254;HTU21D;59019;47.638;18.966;2023-03-01T03:52:39;4.04;82.27
71254;HTU21D;59019;47.638;18.966;2023-03-01T03:55:06;4.05;82.23
71254;HTU21D;59019;47.638;18.966;2023-03-01T03:57:37;4.04;82.14
71254;HTU21D;59019;47.638;18.966;2023-03-01T04:00:03;4.03;82.27
71254;HTU21D;59019;47.638;18.966;2023-03-01T04:02:41;4.04;82.22
71254;HTU21D;59019;47.638;18.966;2023-03-01T04:05:09;4.03;82.12
71254;HTU21D;59019;47.638;18.966;2023-03-01T04:07:35;3.95;81.53
71254;HTU21D;59019;47.638;18.966;2023-03-01T04:10:08;3.99;81.56
71254;HTU21D;59019;47.638;18.966;2023-03-01T04:12:34;4.04;81.47
71254;HTU21D;59019;47.638;18.966;2023-03-01T04:15:00;4.09;81.45
71254;HTU21D;59019;47.638;18.966;2023-03-01T04:17:26;4.12;80.91
71254;HTU21D;59019;47.638;18.966;2023-03-01T04:19:52;4.14;80.53
71254;HTU21D;59019;47.638;18.966;2023-03-01T04:22:18;4.14;80.45
71254;HTU21D;59019;47.638;18.966;2023-03-01T04:24:44;4.08;80.52
71254;HTU21D;59019;47.638;18.966;2023-03-01T04:27:11;4.08;80.63
71254;HTU21D;59019;47.638;18.966;2023-03-01T04:29:36;4.07;80.49
71254;HTU21D;59019;47.638;18.966;2023-03-01T04:32:02;4.09;80.32
71254;HTU21D;59019;47.638;18.966;2023-03-01T04:34:29;4.14;80.41
71254;HTU21D;59019;47.638;18.966;2023-03-01T04:36:55;4.17;80.65
71254;HTU21D;59019;47.638;18.966;2023-03-01T04:39:21;4.19;80.78
71254;HTU21D;59019;47.638;18.966;2023-03-01T04:41:46;4.10;80.89
71254;HTU21D;59019;47.638;18.966;2023-03-01T04:44:12;4.09;83.26
71254;HTU21D;59019;47.638;18.966;2023-03-01T04:46:38;4.14;84.45
71254;HTU21D;59019;47.638;18.966;2023-03-01T04:49:03;3.86;83.20
71254;HTU21D;59019;47.638;18.966;2023-03-01T04:51:30;3.95;84.87
71254;HTU21D;59019;47.638;18.966;2023-03-01T04:53:57;4.05;86.03
71254;HTU21D;59019;47.638;18.966;2023-03-01T04:56:22;4.13;85.19
71254;HTU21D;59019;47.638;18.966;2023-03-01T04:58:48;4.19;83.04
71254;HTU21D;59019;47.638;18.966;2023-03-01T05:01:17;4.19;81.95
71254;HTU21D;59019;47.638;18.966;2023-03-01T05:03:45;4.20;80.93
71254;HTU21D;59019;47.638;18.966;2023-03-01T05:06:11;4.22;80.27
71254;HTU21D;59019;47.638;18.966;2023-03-01T05:08:38;4.16;79.98
71254;HTU21D;59019;47.638;18.966;2023-03-01T05:11:04;4.18;79.55
71254;HTU21D;59019;47.638;18.966;2023-03-01T05:13:31;4.14;79.60
71254;HTU21D;59019;47.638;18.966;2023-03-01T05:16:00;4.16;79.66
71254;HTU21D;59019;47.638;18.966;2023-03-01T05:18:27;4.09;78.92
71254;HTU21D;59019;47.638;18.966;2023-03-01T05:21:04;4.07;79.02
71254;HTU21D;59019;47.638;18.966;2023-03-01T05:23:31;4.13;78.63
71254;HTU21D;59019;47.638;18.966;2023-03-01T05:26:01;4.10;78.89
71254;HTU21D;59019;47.638;18.966;2023-03-01T05:28:27;4.10;78.97
71254;HTU21D;59019;47.638;18.966;2023-03-01T05:30:57;4.09;78.63
71254;HTU21D;59019;47.638;18.966;2023-03-01T05:33:23;4.08;78.55
71254;HTU21D;59019;47.638;18.966;2023-03-01T05:35:50;4.05;79.16
71254;HTU21D;59019;47.638;18.966;2023-03-01T05:38:17;4.13;79.03
71254;HTU21D;59019;47.638;18.966;2023-03-01T05:40:44;4.15;78.75
71254;HTU21D;59019;47.638;18.966;2023-03-01T05:43:11;4.19;78.88
71254;HTU21D;59019;47.638;18.966;2023-03-01T05:45:37;4.24;79.03
71254;HTU21D;59019;47.638;18.966;2023-03-01T05:48:04;4.27;81.25
71254;HTU21D;59019;47.638;18.966;2023-03-01T05:50:33;4.33;83.43
71254;HTU21D;59019;47.638;18.966;2023-03-01T05:53:00;4.41;84.48
71254;HTU21D;59019;47.638;18.966;2023-03-01T05:55:26;4.35;85.42
71254;HTU21D;59019;47.638;18.966;2023-03-01T05:57:52;4.45;84.00
71254;HTU21D;59019;47.638;18.966;2023-03-01T06:00:19;4.51;82.24
71254;HTU21D;59019;47.638;18.966;2023-03-01T06:02:47;4.54;80.20
71254;HTU21D;59019;47.638;18.966;2023-03-01T06:05:13;4.60;78.94
71254;HTU21D;59019;47.638;18.966;2023-03-01T06:07:39;4.63;78.51
71254;HTU21D;59019;47.638;18.966;2023-03-01T06:10:06;4.68;78.72
71254;HTU21D;59019;47.638;18.966;2023-03-01T06:12:33;4.67;78.90
71254;HTU21D;59019;47.638;18.966;2023-03-01T06:15:00;4.73;78.71
71254;HTU21D;59019;47.638;18.966;2023-03-01T06:17:29;4.74;78.51
71254;HTU21D;59019;47.638;18.966;2023-03-01T06:19:54;4.73;78.95
71254;HTU21D;59019;47.638;18.966;2023-03-01T06:22:20;4.80;78.92
71254;HTU21D;59019;47.638;18.966;2023-03-01T06:24:46;4.84;78.83
71254;HTU21D;59019;47.638;18.966;2023-03-01T06:27:11;4.86;78.43
71254;HTU21D;59019;47.638;18.966;2023-03-01T06:29:38;4.86;78.63
71254;HTU21D;59019;47.638;18.966;2023-03-01T06:32:04;4.84;78.54
71254;HTU21D;59019;47.638;18.966;2023-03-01T06:34:29;4.91;78.39
71254;HTU21D;59019;47.638;18.966;2023-03-01T06:36:55;4.96;77.66
71254;HTU21D;59019;47.638;18.966;2023-03-01T06:39:20;4.93;76.65
71254;HTU21D;59019;47.638;18.966;2023-03-01T06:41:49;4.94;75.93
71254;HTU21D;59019;47.638;18.966;2023-03-01T06:44:14;4.98;75.87
71254;HTU21D;59019;47.638;18.966;2023-03-01T06:46:40;4.97;75.75
71254;HTU21D;59019;47.638;18.966;2023-03-01T06:49:06;5.01;78.16
71254;HTU21D;59019;47.638;18.966;2023-03-01T06:51:38;5.10;78.97
71254;HTU21D;59019;47.638;18.966;2023-03-01T06:54:04;5.20;80.43
71254;HTU21D;59019;47.638;18.966;2023-03-01T06:56:31;5.24;82.20
71254;HTU21D;59019;47.638;18.966;2023-03-01T06:58:57;5.28;83.10
71254;HTU21D;59019;47.638;18.966;2023-03-01T07:01:23;5.38;81.80
71254;HTU21D;59019;47.638;18.966;2023-03-01T07:03:48;5.49;79.81
71254;HTU21D;59019;47.638;18.966;2023-03-01T07:06:14;5.55;78.33
71254;HTU21D;59019;47.638;18.966;2023-03-01T07:08:40;5.59;78.04
71254;HTU21D;59019;47.638;18.966;2023-03-01T07:11:06;5.65;77.21
71254;HTU21D;59019;47.638;18.966;2023-03-01T07:13:33;5.66;76.92
71254;HTU21D;59019;47.638;18.966;2023-03-01T07:15:58;5.70;76.22
71254;HTU21D;59019;47.638;18.966;2023-03-01T07:18:24;5.70;76.13
71254;HTU21D;59019;47.638;18.966;2023-03-01T07:20:50;5.77;75.84
71254;HTU21D;59019;47.638;18.966;2023-03-01T07:23:15;5.83;74.86
71254;HTU21D;59019;47.638;18.966;2023-03-01T07:25:41;5.89;74.89
71254;HTU21D;59019;47.638;18.966;2023-03-01T07:28:06;5.97;74.70
71254;HTU21D;59019;47.638;18.966;2023-03-01T07:30:32;5.99;74.26
71254;HTU21D;59019;47.638;18.966;2023-03-01T07:32:58;6.05;77.79
71254;HTU21D;59019;47.638;18.966;2023-03-01T07:35:25;6.20;76.60
71254;HTU21D;59019;47.638;18.966;2023-03-01T07:37:51;6.35;74.44
71254;HTU21D;59019;47.638;18.966;2023-03-01T07:40:17;6.41;72.40
71254;HTU21D;59019;47.638;18.966;2023-03-01T07:42:43;6.38;71.84
71254;HTU21D;59019;47.638;18.966;2023-03-01T07:45:09;6.25;71.58
71254;HTU21D;59019;47.638;18.966;2023-03-01T07:47:35;6.16;71.07
71254;HTU21D;59019;47.638;18.966;2023-03-01T07:50:01;6.21;71.61
71254;HTU21D;59019;47.638;18.966;2023-03-01T07:52:28;6.14;71.40
71254;HTU21D;59019;47.638;18.966;2023-03-01T07:54:54;6.25;71.45
71254;HTU21D;59019;47.638;18.966;2023-03-01T07:57:20;6.25;71.40
71254;HTU21D;59019;47.638;18.966;2023-03-01T07:59:45;6.24;71.24
71254;HTU21D;59019;47.638;18.966;2023-03-01T08:02:11;6.36;71.12
71254;HTU21D;59019;47.638;18.966;2023-03-01T08:04:37;6.51;70.82
71254;HTU21D;59019;47.638;18.966;2023-03-01T08:07:05;6.73;70.69
71254;HTU21D;59019;47.638;18.966;2023-03-01T08:09:31;6.83;70.22
71254;HTU21D;59019;47.638;18.966;2023-03-01T08:11:57;6.95;72.77
71254;HTU21D;59019;47.638;18.966;2023-03-01T08:14:25;7.11;71.85
71254;HTU21D;59019;47.638;18.966;2023-03-01T08:16:50;7.32;71.99
71254;HTU21D;59019;47.638;18.966;2023-03-01T08:19:16;7.43;71.37
71254;HTU21D;59019;47.638;18.966;2023-03-01T08:21:42;7.72;70.04
71254;HTU21D;59019;47.638;18.966;2023-03-01T08:24:08;7.60;68.83
71254;HTU21D;59019;47.638;18.966;2023-03-01T08:26:36;7.63;68.09
71254;HTU21D;59019;47.638;18.966;2023-03-01T08:29:02;7.76;67.52
71254;HTU21D;59019;47.638;18.966;2023-03-01T08:31:33;7.75;67.31
71254;HTU21D;59019;47.638;18.966;2023-03-01T08:34:02;8.04;67.30
71254;HTU21D;59019;47.638;18.966;2023-03-01T08:36:31;8.09;66.25
71254;HTU21D;59019;47.638;18.966;2023-03-01T08:38:57;8.21;65.22
71254;HTU21D;59019;47.638;18.966;2023-03-01T08:41:22;8.32;64.34
71254;HTU21D;59019;47.638;18.966;2023-03-01T08:43:48;8.59;63.24
71254;HTU21D;59019;47.638;18.966;2023-03-01T08:46:14;9.25;63.13
71254;HTU21D;59019;47.638;18.966;2023-03-01T08:48:40;9.45;61.93
71254;HTU21D;59019;47.638;18.966;2023-03-01T08:51:16;8.53;61.86
71254;HTU21D;59019;47.638;18.966;2023-03-01T08:53:42;9.16;62.85
71254;HTU21D;59019;47.638;18.966;2023-03-01T08:56:09;9.19;61.86
71254;HTU21D;59019;47.638;18.966;2023-03-01T08:58:36;9.64;61.28
71254;HTU21D;59019;47.638;18.966;2023-03-01T09:01:14;9.71;59.83
71254;HTU21D;59019;47.638;18.966;2023-03-01T09:03:40;10.36;59.19
71254;HTU21D;59019;47.638;18.966;2023-03-01T09:06:07;10.77;58.04
71254;HTU21D;59019;47.638;18.966;2023-03-01T09:08:38;11.03;57.58
71254;HTU21D;59019;47.638;18.966;2023-03-01T09:11:05;11.32;57.09
71254;HTU21D;59019;47.638;18.966;2023-03-01T09:13:33;11.43;56.48
71254;HTU21D;59019;47.638;18.966;2023-03-01T09:16:00;11.15;55.70
71254;HTU21D;59019;47.638;18.966;2023-03-01T09:18:27;11.24;56.26
71254;HTU21D;59019;47.638;18.966;2023-03-01T09:20:52;11.20;55.53
71254;HTU21D;59019;47.638;18.966;2023-03-01T09:23:20;11.27;55.55
71254;HTU21D;59019;47.638;18.966;2023-03-01T09:25:46;11.28;55.36
71254;HTU21D;59019;47.638;18.966;2023-03-01T09:28:12;11.07;56.14
71254;HTU21D;59019;47.638;18.966;2023-03-01T09:30:37;10.67;56.45
71254;HTU21D;59019;47.638;18.966;2023-03-01T09:33:03;10.56;58.97
71254;HTU21D;59019;47.638;18.966;2023-03-01T09:35:28;10.62;58.53
71254;HTU21D;59019;47.638;18.966;2023-03-01T09:37:54;11.07;57.82
71254;HTU21D;59019;47.638;18.966;2023-03-01T09:40:21;11.48;57.74
71254;HTU21D;59019;47.638;18.966;2023-03-01T09:45:29;12.04;56.83
71254;HTU21D;59019;47.638;18.966;2023-03-01T09:47:58;10.74;56.25
71254;HTU21D;59019;47.638;18.966;2023-03-01T09:50:26;10.89;59.80
71254;HTU21D;59019;47.638;18.966;2023-03-01T09:53:18;11.71;57.90
71254;HTU21D;59019;47.638;18.966;2023-03-01T09:56:05;12.79;57.19
71254;HTU21D;59019;47.638;18.966;2023-03-01T09:58:47;13.17;55.50
71254;HTU21D;59019;47.638;18.966;2023-03-01T10:01:30;13.53;54.59
71254;HTU21D;59019;47.638;18.966;2023-03-01T10:09:38;12.66;54.46
71254;HTU21D;59019;47.638;18.966;2023-03-01T10:12:16;12.93;54.97
71254;HTU21D;59019;47.638;18.966;2023-03-01T10:15:10;12.70;54.07
71254;HTU21D;59019;47.638;18.966;2023-03-01T10:17:52;12.36;54.67
71254;HTU21D;59019;47.638;18.966;2023-03-01T10:20:25;11.97;55.84
71254;HTU21D;59019;47.638;18.966;2023-03-01T10:22:52;11.68;56.50
71254;HTU21D;59019;47.638;18.966;2023-03-01T10:30:42;12.04;56.62
71254;HTU21D;59019;47.638;18.966;2023-03-01T10:33:27;12.48;56.52
71254;HTU21D;59019;47.638;18.966;2023-03-01T10:35:53;12.48;55.73
71254;HTU21D;59019;47.638;18.966;2023-03-01T10:38:20;13.21;56.26
71254;HTU21D;59019;47.638;18.966;2023-03-01T10:43:27;14.12;54.03
71254;HTU21D;59019;47.638;18.966;2023-03-01T10:45:53;14.33;53.33
71254;HTU21D;59019;47.638;18.966;2023-03-01T10:48:24;14.00;53.39
71254;HTU21D;59019;47.638;18.966;2023-03-01T10:56:11;14.32;53.01
71254;HTU21D;59019;47.638;18.966;2023-03-01T10:59:02;14.88;53.46
71254;HTU21D;59019;47.638;18.966;2023-03-01T11:01:28;14.43;51.79
71254;HTU21D;59019;47.638;18.966;2023-03-01T11:06:37;14.25;53.89
71254;HTU21D;59019;47.638;18.966;2023-03-01T11:09:20;13.96;54.42
71254;HTU21D;59019;47.638;18.966;2023-03-01T11:11:52;14.00;55.00
71254;HTU21D;59019;47.638;18.966;2023-03-01T11:14:23;14.89;54.26
71254;HTU21D;59019;47.638;18.966;2023-03-01T11:17:05;15.11;52.81
71254;HTU21D;59019;47.638;18.966;2023-03-01T11:19:32;15.48;52.34
71254;HTU21D;59019;47.638;18.966;2023-03-01T11:24:50;16.26;51.82
71254;HTU21D;59019;47.638;18.966;2023-03-01T11:27:21;16.18;50.12
71254;HTU21D;59019;47.638;18.966;2023-03-01T11:32:56;16.37;50.69
71254;HTU21D;59019;47.638;18.966;2023-03-01T11:35:24;16.70;50.02
71254;HTU21D;59019;47.638;18.966;2023-03-01T11:41:06;17.07;48.44
71254;HTU21D;59019;47.638;18.966;2023-03-01T11:43:53;16.67;48.82
71254;HTU21D;59019;47.638;18.966;2023-03-01T11:48:50;16.27;49.67
71254;HTU21D;59019;47.638;18.966;2023-03-01T11:54:18;15.90;50.51
71254;HTU21D;59019;47.638;18.966;2023-03-01T11:56:54;15.73;50.87
71254;HTU21D;59019;47.638;18.966;2023-03-01T12:07:56;14.86;52.37
71254;HTU21D;59019;47.638;18.966;2023-03-01T12:10:28;14.79;52.46
71254;HTU21D;59019;47.638;18.966;2023-03-01T12:13:27;14.55;53.09
71254;HTU21D;59019;47.638;18.966;2023-03-01T12:16:36;14.23;53.27
71254;HTU21D;59019;47.638;18.966;2023-03-01T12:21:59;13.70;55.13
71254;HTU21D;59019;47.638;18.966;2023-03-01T12:27:37;13.68;54.90
71254;HTU21D;59019;47.638;18.966;2023-03-01T12:30:38;13.47;55.65
71254;HTU21D;59019;47.638;18.966;2023-03-01T12:35:52;13.82;56.25
71254;HTU21D;59019;47.638;18.966;2023-03-01T12:49:01;14.51;54.32
71254;HTU21D;59019;47.638;18.966;2023-03-01T12:51:32;14.65;53.70
71254;HTU21D;59019;47.638;18.966;2023-03-01T12:54:05;14.38;54.24
71254;HTU21D;59019;47.638;18.966;2023-03-01T12:56:35;13.97;54.99
71254;HTU21D;59019;47.638;18.966;2023-03-01T13:09:49;14.37;55.13
71254;HTU21D;59019;47.638;18.966;2023-03-01T13:20:46;13.10;56.35
71254;HTU21D;59019;47.638;18.966;2023-03-01T13:23:27;12.99;57.19
71254;HTU21D;59019;47.638;18.966;2023-03-01T13:28:36;13.33;58.26
71254;HTU21D;59019;47.638;18.966;2023-03-01T13:31:10;13.76;57.19
71254;HTU21D;59019;47.638;18.966;2023-03-01T13:36:10;14.24;55.94
71254;HTU21D;59019;47.638;18.966;2023-03-01T13:38:46;14.59;55.90
71254;HTU21D;59019;47.638;18.966;2023-03-01T13:41:17;15.07;53.84
71254;HTU21D;59019;47.638;18.966;2023-03-01T13:46:37;14.63;54.35
71254;HTU21D;59019;47.638;18.966;2023-03-01T13:49:03;14.70;55.09
71254;HTU21D;59019;47.638;18.966;2023-03-01T13:51:29;14.96;54.29
71254;HTU21D;59019;47.638;18.966;2023-03-01T13:53:56;15.21;53.16
71254;HTU21D;59019;47.638;18.966;2023-03-01T13:56:28;15.11;53.62
71254;HTU21D;59019;47.638;18.966;2023-03-01T13:59:12;14.85;52.99
71254;HTU21D;59019;47.638;18.966;2023-03-01T14:01:37;15.08;53.68
71254;HTU21D;59019;47.638;18.966;2023-03-01T14:04:20;15.16;53.69
71254;HTU21D;59019;47.638;18.966;2023-03-01T14:06:46;15.36;53.81
71254;HTU21D;59019;47.638;18.966;2023-03-01T14:09:19;15.26;53.55
71254;HTU21D;59019;47.638;18.966;2023-03-01T14:15:01;15.27;52.66
71254;HTU21D;59019;47.638;18.966;2023-03-01T14:17:51;15.03;52.83
71254;HTU21D;59019;47.638;18.966;2023-03-01T14:20:20;14.96;53.56
71254;HTU21D;59019;47.638;18.966;2023-03-01T14:22:47;14.85;53.60
71254;HTU21D;59019;47.638;18.966;2023-03-01T14:25:32;14.48;53.30
71254;HTU21D;59019;47.638;18.966;2023-03-01T14:30:40;13.83;55.22
71254;HTU21D;59019;47.638;18.966;2023-03-01T14:33:35;13.52;55.90
71254;HTU21D;59019;47.638;18.966;2023-03-01T14:36:12;12.87;57.10
71254;HTU21D;59019;47.638;18.966;2023-03-01T14:38:46;12.51;58.65
71254;HTU21D;59019;47.638;18.966;2023-03-01T14:41:25;12.47;58.63
71254;HTU21D;59019;47.638;18.966;2023-03-01T14:43:55;12.29;58.98
71254;HTU21D;59019;47.638;18.966;2023-03-01T14:46:40;12.21;59.92
71254;HTU21D;59019;47.638;18.966;2023-03-01T14:51:41;11.63;60.61
71254;HTU21D;59019;47.638;18.966;2023-03-01T14:54:37;11.20;61.50
71254;HTU21D;59019;47.638;18.966;2023-03-01T14:57:05;10.97;62.79
71254;HTU21D;59019;47.638;18.966;2023-03-01T14:59:36;10.88;62.94
71254;HTU21D;59019;47.638;18.966;2023-03-01T15:02:01;10.94;63.13
71254;HTU21D;59019;47.638;18.966;2023-03-01T15:04:28;11.00;63.04
71254;HTU21D;59019;47.638;18.966;2023-03-01T15:06:55;10.93;63.07
71254;HTU21D;59019;47.638;18.966;2023-03-01T15:09:30;10.89;63.69
71254;HTU21D;59019;47.638;18.966;2023-03-01T15:11:57;10.78;63.62
71254;HTU21D;59019;47.638;18.966;2023-03-01T15:14:52;10.66;63.77
71254;HTU21D;59019;47.638;18.966;2023-03-01T15:17:31;10.53;64.43
71254;HTU21D;59019;47.638;18.966;2023-03-01T15:19:58;10.52;65.01
71254;HTU21D;59019;47.638;18.966;2023-03-01T15:22:25;10.38;64.81
71254;HTU21D;59019;47.638;18.966;2023-03-01T15:24:52;10.34;65.74
71254;HTU21D;59019;47.638;18.966;2023-03-01T15:27:20;10.24;65.52
71254;HTU21D;59019;47.638;18.966;2023-03-01T15:30:00;10.15;65.63
71254;HTU21D;59019;47.638;18.966;2023-03-01T15:32:35;10.00;66.55
71254;HTU21D;59019;47.638;18.966;2023-03-01T15:35:42;9.92;66.85
71254;HTU21D;59019;47.638;18.966;2023-03-01T15:38:28;9.85;67.49
71254;HTU21D;59019;47.638;18.966;2023-03-01T15:40:55;9.78;67.90
71254;HTU21D;59019;47.638;18.966;2023-03-01T15:46:22;9.46;68.81
71254;HTU21D;59019;47.638;18.966;2023-03-01T15:48:52;9.29;69.71
71254;HTU21D;59019;47.638;18.966;2023-03-01T15:51:26;9.19;69.92
71254;HTU21D;59019;47.638;18.966;2023-03-01T15:53:53;9.01;70.60
71254;HTU21D;59019;47.638;18.966;2023-03-01T15:56:19;8.83;71.22
71254;HTU21D;59019;47.638;18.966;2023-03-01T15:58:44;8.82;71.41
71254;HTU21D;59019;47.638;18.966;2023-03-01T16:01:15;8.58;72.15
71254;HTU21D;59019;47.638;18.966;2023-03-01T16:03:42;8.44;72.15
71254;HTU21D;59019;47.638;18.966;2023-03-01T16:06:11;8.45;72.00
71254;HTU21D;59019;47.638;18.966;2023-03-01T16:08:38;8.22;72.41
71254;HTU21D;59019;47.638;18.966;2023-03-01T16:11:14;8.19;73.03
71254;HTU21D;59019;47.638;18.966;2023-03-01T16:13:40;8.07;76.10
71254;HTU21D;59019;47.638;18.966;2023-03-01T16:16:08;7.96;77.07
71254;HTU21D;59019;47.638;18.966;2023-03-01T16:18:38;7.92;80.62
71254;HTU21D;59019;47.638;18.966;2023-03-01T16:21:04;7.83;79.77
71254;HTU21D;59019;47.638;18.966;2023-03-01T16:23:30;7.71;79.74
71254;HTU21D;59019;47.638;18.966;2023-03-01T16:25:59;7.54;78.54
71254;HTU21D;59019;47.638;18.966;2023-03-01T16:28:25;7.39;77.94
71254;HTU21D;59019;47.638;18.966;2023-03-01T16:30:51;7.42;76.08
71254;HTU21D;59019;47.638;18.966;2023-03-01T16:33:17;7.30;78.88
71254;HTU21D;59019;47.638;18.966;2023-03-01T16:35:43;7.22;79.37
71254;HTU21D;59019;47.638;18.966;2023-03-01T16:38:10;7.11;78.53
71254;HTU21D;59019;47.638;18.966;2023-03-01T16:40:36;7.02;78.30
71254;HTU21D;59019;47.638;18.966;2023-03-01T16:43:02;7.03;80.49
71254;HTU21D;59019;47.638;18.966;2023-03-01T16:45:33;6.97;78.65
71254;HTU21D;59019;47.638;18.966;2023-03-01T16:47:59;6.97;79.57
71254;HTU21D;59019;47.638;18.966;2023-03-01T16:50:25;6.95;79.42
71254;HTU21D;59019;47.638;18.966;2023-03-01T16:52:50;6.88;77.69
71254;HTU21D;59019;47.638;18.966;2023-03-01T16:55:16;6.67;77.51
71254;HTU21D;59019;47.638;18.966;2023-03-01T16:57:41;6.41;78.80
71254;HTU21D;59019;47.638;18.966;2023-03-01T17:00:08;6.30;81.40
71254;HTU21D;59019;47.638;18.966;2023-03-01T17:02:38;6.21;81.39
71254;HTU21D;59019;47.638;18.966;2023-03-01T17:05:04;6.19;80.30
71254;HTU21D;59019;47.638;18.966;2023-03-01T17:07:31;6.15;80.95
71254;HTU21D;59019;47.638;18.966;2023-03-01T17:10:01;6.21;80.25
71254;HTU21D;59019;47.638;18.966;2023-03-01T17:12:27;6.15;80.33
71254;HTU21D;59019;47.638;18.966;2023-03-01T17:14:53;5.98;81.07
71254;HTU21D;59019;47.638;18.966;2023-03-01T17:17:18;5.89;81.47
71254;HTU21D;59019;47.638;18.966;2023-03-01T17:19:44;5.79;81.94
71254;HTU21D;59019;47.638;18.966;2023-03-01T17:22:10;5.63;81.80
71254;HTU21D;59019;47.638;18.966;2023-03-01T17:24:39;5.52;82.47